createdAt,value
2023-01-18T00:04:59.767Z,23.8
2023-01-18T00:10:06.317Z,23.5
2023-01-18T00:15:28.540Z,23.3
2023-01-18T00:20:51.488Z,23.4
2023-01-18T00:26:14.319Z,24
2023-01-18T00:31:37.176Z,23.7
2023-01-18T00:36:47.971Z,23.4
2023-01-18T00:42:10.587Z,23.3
2023-01-18T00:47:33.738Z,23.8
2023-01-18T00:52:40.354Z,23.9
2023-01-18T00:57:48.352Z,23.6
2023-01-18T01:02:56.179Z,23.3
2023-01-18T01:08:18.287Z,23.4
2023-01-18T01:13:40.377Z,24.1
2023-01-18T01:19:03.054Z,23.8
2023-01-18T01:24:26.104Z,23.5
2023-01-18T01:29:18.017Z,23.3
2023-01-18T01:34:40.233Z,23.8
2023-01-18T01:39:31.328Z,24.1
2023-01-18T01:44:54.651Z,23.7
2023-01-18T01:50:16.581Z,23.5
2023-01-18T01:55:38.655Z,23.5
2023-01-18T02:01:00.907Z,24.1
2023-01-18T02:06:23.833Z,23.9
2023-01-18T02:11:45.434Z,23.6
2023-01-18T02:17:08.579Z,23.4
2023-01-18T02:22:30.406Z,23.7
2023-01-18T02:27:53.174Z,24.1
2023-01-18T02:33:00.803Z,23.8
2023-01-18T02:38:23.015Z,23.6
2023-01-18T02:43:45.901Z,23.4
2023-01-18T02:49:11.579Z,23.9
2023-01-18T02:54:33.071Z,23.9
2023-01-18T02:59:56.021Z,23.6
2023-01-18T03:05:18.820Z,23.4
2023-01-18T03:10:25.504Z,23.6
2023-01-18T03:15:16.816Z,24.1
2023-01-18T03:20:25.468Z,23.9
2023-01-18T03:25:32.414Z,23.6
2023-01-18T03:30:39.153Z,23.4
2023-01-18T03:36:02.107Z,23.8
2023-01-18T03:41:24.886Z,24.1
2023-01-18T03:46:32.551Z,23.8
2023-01-18T03:51:39.670Z,23.5
2023-01-18T03:57:01.955Z,23.4
2023-01-18T04:02:25.115Z,24
2023-01-18T04:07:48.182Z,23.9
2023-01-18T04:13:09.770Z,23.6
2023-01-18T04:18:31.843Z,23.4
2023-01-18T04:23:53.946Z,23.6
2023-01-18T04:29:01.363Z,24.1
2023-01-18T04:33:53.661Z,23.8
2023-01-18T04:39:16.309Z,23.6
2023-01-18T04:44:24.085Z,23.4
2023-01-18T04:49:46.629Z,23.8
2023-01-18T04:55:09.374Z,24
2023-01-18T05:00:31.961Z,23.7
2023-01-18T05:05:55.876Z,23.5
2023-01-18T05:11:18.363Z,23.3
2023-01-18T05:16:41.019Z,23.2
2023-01-18T05:22:03.667Z,23.5
2023-01-18T05:27:26.357Z,23.9
2023-01-18T05:32:52.035Z,23.6
2023-01-18T05:38:14.418Z,23.3
2023-01-18T05:43:24.134Z,23.3
2023-01-18T05:48:47.185Z,23.9
2023-01-18T05:54:12.160Z,23.8
2023-01-18T05:59:34.211Z,23.4
2023-01-18T06:04:41.953Z,23.3
2023-01-18T06:09:49.313Z,23.1
2023-01-18T06:15:12.858Z,23.1
2023-01-18T06:20:22.071Z,23.1
2023-01-18T06:25:47.472Z,23.6
2023-01-18T06:31:09.998Z,23.9
2023-01-18T06:36:32.964Z,23.4
2023-01-18T06:41:56.250Z,23.3
2023-01-18T06:47:19.200Z,23.3
2023-01-18T06:52:42.044Z,23.9
2023-01-18T06:58:08.174Z,23.7
2023-01-18T07:03:32.859Z,23.4
2023-01-18T07:08:40.000Z,23.4
2023-01-18T07:14:02.924Z,23.9
2023-01-18T07:19:38.138Z,23.8
2023-01-18T07:25:00.691Z,23.4
2023-01-18T07:30:23.694Z,23.3
2023-01-18T07:35:49.920Z,23.2
2023-01-18T07:41:11.817Z,23.1
2023-01-18T07:46:37.856Z,23.1
2023-01-18T07:52:00.426Z,22.9
2023-01-18T07:57:23.383Z,23.1
2023-01-18T08:02:46.768Z,22.9
2023-01-18T08:08:11.286Z,22.8
2023-01-18T08:13:34.572Z,22.8
2023-01-18T08:19:00.664Z,22.7
2023-01-18T08:24:23.278Z,22.6
2023-01-18T08:29:46.120Z,22.6
2023-01-18T08:35:09.687Z,22.7
2023-01-18T08:40:32.701Z,22.9
2023-01-18T08:45:55.086Z,22.6
2023-01-18T08:51:18.148Z,22.6
2023-01-18T08:56:25.769Z,22.6
2023-01-18T09:01:51.113Z,22.5
2023-01-18T09:07:15.059Z,22.5
2023-01-18T09:12:38.245Z,22.4
2023-01-18T09:18:14.844Z,22.5
2023-01-18T09:23:39.490Z,22.7
2023-01-18T09:29:01.968Z,22.5
2023-01-18T09:34:36.200Z,22.4
2023-01-18T09:40:08.321Z,22.4
2023-01-18T09:45:30.509Z,22.4
2023-01-18T09:50:52.900Z,22.3
2023-01-18T09:56:15.719Z,22.3
2023-01-18T10:01:23.357Z,22.6
2023-01-18T10:06:46.743Z,22.5
2023-01-18T10:12:09.413Z,22.4
2023-01-18T10:17:33.132Z,22.3
2023-01-18T10:22:55.844Z,22.3
2023-01-18T10:28:18.247Z,22.3
2023-01-18T10:33:41.213Z,22.3
2023-01-18T10:38:49.126Z,22.3
2023-01-18T10:44:11.830Z,22.6
2023-01-18T10:49:35.679Z,22.4
2023-01-18T10:54:58.342Z,22.3
2023-01-18T11:00:21.524Z,22.3
2023-01-18T11:05:46.003Z,22.2
2023-01-18T11:11:08.228Z,22.2
2023-01-18T11:16:30.882Z,22.1
2023-01-18T11:21:39.864Z,22.1
2023-01-18T11:27:04.343Z,22.5
2023-01-18T11:32:29.653Z,22.4
2023-01-18T11:37:54.982Z,22.3
2023-01-18T11:43:16.863Z,22.1
2023-01-18T11:48:39.790Z,22.1
2023-01-18T11:54:03.189Z,22
2023-01-18T11:59:26.480Z,22
2023-01-18T12:04:50.375Z,22.1
2023-01-18T12:10:16.018Z,22.5
2023-01-18T12:15:54.885Z,22.4
2023-01-18T12:21:32.837Z,22.2
2023-01-18T12:27:03.354Z,22.1
2023-01-18T12:32:26.975Z,22.1
2023-01-18T12:38:10.552Z,22.2
2023-01-18T12:43:35.300Z,22.6
2023-01-18T12:48:57.680Z,22.3
2023-01-18T12:54:31.877Z,22.2
2023-01-18T12:59:55.555Z,22.1
2023-01-18T13:05:21.683Z,22.1
2023-01-18T13:10:45.188Z,22.4
2023-01-18T13:16:08.172Z,22.5
2023-01-18T13:21:30.432Z,22.3
2023-01-18T13:26:53.201Z,22.2
2023-01-18T13:32:16.689Z,22.1
2023-01-18T13:38:23.726Z,22.2
2023-01-18T13:43:50.771Z,22.6
2023-01-18T13:49:23.353Z,22.4
2023-01-18T13:54:55.339Z,22.3
2023-01-18T14:00:19.350Z,22.2
2023-01-18T14:05:43.201Z,22.1
2023-01-18T14:11:06.172Z,22.1
2023-01-18T14:16:31.139Z,22.1
2023-01-18T14:22:12.821Z,22.1
2023-01-18T14:27:35.126Z,22.1
2023-01-18T14:32:58.609Z,22.5
2023-01-18T14:38:33.420Z,22.3
2023-01-18T14:43:40.813Z,22.1
2023-01-18T14:49:21.148Z,22
2023-01-18T14:54:44.195Z,21.9
2023-01-18T15:00:06.890Z,21.9
2023-01-18T15:05:31.066Z,21.9
2023-01-18T15:10:38.697Z,21.9
2023-01-18T15:15:30.621Z,22.3
2023-01-18T15:20:38.345Z,22.2
2023-01-18T15:26:01.829Z,22
2023-01-18T15:31:39.588Z,21.9
2023-01-18T15:37:02.745Z,21.9
2023-01-18T15:42:25.607Z,21.8
2023-01-18T15:47:32.696Z,21.8
2023-01-18T15:52:55.889Z,21.8
2023-01-18T15:58:19.130Z,22.1
2023-01-18T16:03:43.200Z,22.1
2023-01-18T16:09:22.260Z,21.9
2023-01-18T16:14:45.064Z,21.9
2023-01-18T16:20:07.221Z,21.8
2023-01-18T16:25:29.998Z,21.8
2023-01-18T16:30:52.963Z,21.8
2023-01-18T16:36:17.982Z,21.7
2023-01-18T16:41:49.704Z,21.9
2023-01-18T16:47:25.527Z,22.2
2023-01-18T16:52:48.932Z,22
2023-01-18T16:58:12.028Z,21.9
2023-01-18T17:03:35.406Z,21.8
2023-01-18T17:08:57.761Z,21.8
2023-01-18T17:14:27.423Z,21.6
2023-01-18T17:19:54.662Z,21.9
2023-01-18T17:25:16.943Z,22.2
2023-01-18T17:30:40.316Z,22
2023-01-18T17:36:10.628Z,21.9
2023-01-18T17:42:30.907Z,21.8
2023-01-18T17:48:24.271Z,21.8
2023-01-18T17:53:33.523Z,21.8
2023-01-18T17:59:11.631Z,21.7
2023-01-18T18:04:36.981Z,21.9
2023-01-18T18:10:15.240Z,22.1
2023-01-18T18:15:39.563Z,21.9
2023-01-18T18:21:12.091Z,21.8
2023-01-18T18:26:36.637Z,21.8
2023-01-18T18:32:10.582Z,21.7
2023-01-18T18:37:49.182Z,21.7
2023-01-18T18:43:19.206Z,21.7
2023-01-18T18:48:45.948Z,21.7
2023-01-18T18:54:01.795Z,22.1
2023-01-18T18:59:27.220Z,21.9
2023-01-18T19:04:52.832Z,21.9
2023-01-18T19:10:17.332Z,21.8
2023-01-18T19:15:33.888Z,21.7
2023-01-18T19:21:07.969Z,21.7
2023-01-18T19:26:33.059Z,21.7
2023-01-18T19:31:57.537Z,21.6
2023-01-18T19:37:21.441Z,21.6
2023-01-18T19:43:00.383Z,21.9
2023-01-18T19:48:16.537Z,22
2023-01-18T19:53:36.643Z,21.8
2023-01-18T19:58:55.447Z,21.8
2023-01-18T20:04:24.650Z,21.6
2023-01-18T20:09:42.999Z,21.6
2023-01-18T20:14:57.881Z,21.6
2023-01-18T20:20:31.643Z,21.6
2023-01-18T20:25:56.134Z,22.1
2023-01-18T20:31:32.594Z,22
2023-01-18T20:37:06.061Z,21.8
2023-01-18T20:42:30.313Z,21.8
2023-01-18T20:47:23.675Z,21.7
2023-01-18T20:52:43.032Z,21.7
2023-01-18T20:58:24.052Z,21.7
2023-01-18T21:03:34.646Z,21.7
2023-01-18T21:08:58.297Z,21.6
2023-01-18T21:14:07.086Z,22.2
2023-01-18T21:19:14.743Z,22.1
2023-01-18T21:24:21.452Z,21.9
2023-01-18T21:29:44.655Z,21.8
2023-01-18T21:35:08.106Z,21.8
2023-01-18T21:40:31.526Z,21.8
2023-01-18T21:45:54.362Z,21.6
2023-01-18T21:51:43.025Z,22.1
2023-01-18T21:57:06.020Z,22.2
2023-01-18T22:02:30.657Z,22
2023-01-18T22:07:54.282Z,21.9
2023-01-18T22:13:24.123Z,21.8
2023-01-18T22:18:31.852Z,21.8
2023-01-18T22:23:39.115Z,21.9
2023-01-18T22:29:04.895Z,22.3
2023-01-18T22:34:27.373Z,22.1
2023-01-18T22:39:50.043Z,21.9
2023-01-18T22:45:12.900Z,21.8
2023-01-18T22:50:35.440Z,21.8
2023-01-18T22:55:58.029Z,22.2
2023-01-18T23:01:05.612Z,23
2023-01-18T23:06:28.594Z,22.9
2023-01-18T23:11:36.607Z,22.7
2023-01-18T23:16:44.310Z,23.2
2023-01-18T23:21:51.536Z,23.3
2023-01-18T23:27:13.869Z,23
2023-01-18T23:32:21.207Z,22.8
2023-01-18T23:37:13.061Z,23.3
2023-01-18T23:42:35.996Z,23.5
2023-01-18T23:47:59.646Z,23.2
2023-01-18T23:53:24.339Z,22.9
2023-01-18T23:58:47.441Z,23.4
